createdAt,value
2022-11-16T00:01:13.428Z,98498.63
2022-11-16T00:03:40.813Z,98496.16
2022-11-16T00:06:08.397Z,98497.66
2022-11-16T00:08:36.849Z,98486.88
2022-11-16T00:11:11.796Z,98484.09
2022-11-16T00:13:39.477Z,98485.44
2022-11-16T00:16:07.605Z,98487.91
2022-11-16T00:18:35.111Z,98485.81
2022-11-16T00:21:03.886Z,98483.16
2022-11-16T00:23:31.377Z,98478.75
2022-11-16T00:26:04.477Z,98474.97
2022-11-16T00:28:32.132Z,98478.13
2022-11-16T00:31:02.958Z,98470.19
2022-11-16T00:33:30.228Z,98469.25
2022-11-16T00:35:57.781Z,98467.72
2022-11-16T00:38:24.901Z,98468.78
2022-11-16T00:40:52.024Z,98462.56
2022-11-16T00:43:19.456Z,98456.50
2022-11-16T00:45:46.575Z,98468.84
2022-11-16T00:48:13.690Z,98460.66
2022-11-16T00:50:41.122Z,98457.25
2022-11-16T00:53:10.480Z,98450.53
2022-11-16T00:55:37.742Z,98439.41
2022-11-16T00:58:05.158Z,98433.41
2022-11-16T01:00:32.489Z,98433.56
2022-11-16T01:02:59.601Z,98434.91
2022-11-16T01:05:26.998Z,98428.56
2022-11-16T01:07:54.441Z,98427.34
2022-11-16T01:10:22.651Z,98423.19
2022-11-16T01:12:50.644Z,98427.00
2022-11-16T01:15:18.576Z,98430.06
2022-11-16T01:17:45.744Z,98425.22
2022-11-16T01:20:14.548Z,98414.53
2022-11-16T01:22:41.779Z,98412.34
2022-11-16T01:25:09.419Z,98403.66
2022-11-16T01:27:36.984Z,98400.03
2022-11-16T01:30:05.536Z,98400.66
2022-11-16T01:32:33.777Z,98397.09
2022-11-16T01:35:01.158Z,98394.09
2022-11-16T01:37:31.529Z,98386.97
2022-11-16T01:39:58.874Z,98387.28
2022-11-16T01:42:27.370Z,98377.47
2022-11-16T01:44:59.437Z,98384.22
2022-11-16T01:47:27.034Z,98377.97
2022-11-16T01:49:56.614Z,98374.69
2022-11-16T01:52:27.030Z,98365.53
2022-11-16T01:54:54.608Z,98366.34
2022-11-16T01:57:24.450Z,98369.91
2022-11-16T02:00:01.284Z,98359.41
2022-11-16T02:02:29.778Z,98356.59
2022-11-16T02:04:57.181Z,98361.66
2022-11-16T02:07:26.102Z,98348.84
2022-11-16T02:09:58.899Z,98346.28
2022-11-16T02:12:45.060Z,98349.28
2022-11-16T02:15:25.367Z,98349.31
2022-11-16T02:18:12.364Z,98349.88
2022-11-16T02:20:47.703Z,98335.62
2022-11-16T02:23:32.858Z,98338.87
2022-11-16T02:26:05.394Z,98323.56
2022-11-16T02:28:39.651Z,98330.44
2022-11-16T02:31:07.367Z,98322.75
2022-11-16T02:33:36.695Z,98316.03
2022-11-16T02:36:05.043Z,98313.22
2022-11-16T02:38:33.126Z,98310.31
2022-11-16T02:41:05.283Z,98309.53
2022-11-16T02:43:37.475Z,98302.78
2022-11-16T02:46:05.905Z,98302.97
2022-11-16T02:48:41.060Z,98303.59
2022-11-16T02:51:08.445Z,98298.38
2022-11-16T02:53:50.181Z,98310.19
2022-11-16T02:56:17.341Z,98308.44
2022-11-16T02:58:44.756Z,98296.25
2022-11-16T03:01:15.929Z,98299.78
2022-11-16T03:03:43.004Z,98292.09
2022-11-16T03:06:14.257Z,98291.09
2022-11-16T03:08:52.405Z,98286.41
2022-11-16T03:11:38.521Z,98288.56
2022-11-16T03:14:07.975Z,98284.63
2022-11-16T03:16:37.144Z,98283.25
2022-11-16T03:19:06.049Z,98288.06
2022-11-16T03:21:38.080Z,98284.97
2022-11-16T03:24:08.072Z,98284.16
2022-11-16T03:26:43.611Z,98275.31
2022-11-16T03:29:18.305Z,98264.97
2022-11-16T03:31:46.757Z,98269.38
2022-11-16T03:34:16.290Z,98266.28
2022-11-16T03:36:43.622Z,98259.03
2022-11-16T03:39:12.081Z,98261.97
2022-11-16T03:41:43.275Z,98255.13
2022-11-16T03:44:10.703Z,98258.06
2022-11-16T03:46:39.144Z,98258.56
2022-11-16T03:49:07.698Z,98256.81
2022-11-16T03:51:35.575Z,98250.38
2022-11-16T03:54:03.053Z,98255.81
2022-11-16T03:56:31.433Z,98246.38
2022-11-16T03:58:58.558Z,98242.69
2022-11-16T04:01:25.751Z,98252.12
2022-11-16T04:03:53.672Z,98255.72
2022-11-16T04:06:39.254Z,98247.53
2022-11-16T04:09:26.481Z,98228.44
2022-11-16T04:12:12.210Z,98225.75
2022-11-16T04:15:02.771Z,98231.06
2022-11-16T04:17:49.836Z,98237.88
2022-11-16T04:20:35.785Z,98228.50
2022-11-16T04:23:29.832Z,98227.69
2022-11-16T04:25:57.346Z,98218.84
2022-11-16T04:28:26.176Z,98219.19
2022-11-16T04:31:14.619Z,98220.22
2022-11-16T04:34:02.740Z,98215.25
2022-11-16T04:36:48.729Z,98212.13
2022-11-16T04:39:16.519Z,98204.72
2022-11-16T04:42:02.787Z,98198.38
2022-11-16T04:44:50.517Z,98193.47
2022-11-16T04:47:17.878Z,98199.19
2022-11-16T04:49:46.622Z,98205.66
2022-11-16T04:52:13.795Z,98200.47
2022-11-16T04:54:40.989Z,98202.94
2022-11-16T04:57:08.810Z,98194.91
2022-11-16T04:59:36.093Z,98195.16
2022-11-16T05:02:09.333Z,98190.28
2022-11-16T05:04:41.576Z,98188.91
2022-11-16T05:07:12.456Z,98197.63
2022-11-16T05:09:44.105Z,98185.66
2022-11-16T05:12:12.160Z,98185.34
2022-11-16T05:14:39.568Z,98181.66
2022-11-16T05:17:06.904Z,98195.25
2022-11-16T05:19:52.717Z,98190.81
2022-11-16T05:22:21.610Z,98189.56
2022-11-16T05:24:49.485Z,98195.97
2022-11-16T05:27:16.891Z,98175.59
2022-11-16T05:29:44.612Z,98175.41
2022-11-16T05:32:12.980Z,98175.62
2022-11-16T05:34:40.287Z,98180.00
2022-11-16T05:37:07.949Z,98189.25
2022-11-16T05:39:35.104Z,98173.88
2022-11-16T05:42:02.296Z,98175.31
2022-11-16T05:44:29.708Z,98169.59
2022-11-16T05:46:57.127Z,98165.53
2022-11-16T05:49:24.244Z,98162.38
2022-11-16T05:51:52.499Z,98161.41
2022-11-16T05:54:20.748Z,98156.09
2022-11-16T05:56:48.764Z,98159.22
2022-11-16T05:59:18.445Z,98164.09
2022-11-16T06:01:47.146Z,98158.47
2022-11-16T06:04:14.668Z,98155.56
2022-11-16T06:06:41.941Z,98144.88
2022-11-16T06:09:10.844Z,98148.19
2022-11-16T06:11:38.436Z,98150.94
2022-11-16T06:14:05.887Z,98151.19
2022-11-16T06:16:33.355Z,98156.03
2022-11-16T06:19:01.277Z,98149.28
2022-11-16T06:21:28.830Z,98150.47
2022-11-16T06:23:56.432Z,98141.94
2022-11-16T06:26:24.004Z,98149.25
2022-11-16T06:28:51.281Z,98151.78
2022-11-16T06:31:18.500Z,98144.34
2022-11-16T06:33:47.325Z,98144.00
2022-11-16T06:36:14.881Z,98146.47
2022-11-16T06:38:42.489Z,98142.88
2022-11-16T06:41:10.189Z,98139.38
2022-11-16T06:43:38.824Z,98131.75
2022-11-16T06:46:06.202Z,98134.44
2022-11-16T06:48:33.989Z,98128.19
2022-11-16T06:51:03.388Z,98125.47
2022-11-16T06:53:30.557Z,98125.22
2022-11-16T06:56:05.151Z,98117.87
2022-11-16T06:58:34.324Z,98120.22
2022-11-16T07:01:06.543Z,98122.78
2022-11-16T07:03:33.714Z,98119.00
2022-11-16T07:06:05.910Z,98112.06
2022-11-16T07:08:33.738Z,98115.34
2022-11-16T07:11:04.363Z,98114.81
2022-11-16T07:13:33.704Z,98111.94
2022-11-16T07:16:05.189Z,98112.88
2022-11-16T07:18:34.037Z,98112.13
2022-11-16T07:21:11.669Z,98104.97
2022-11-16T07:23:39.136Z,98105.16
2022-11-16T07:26:07.560Z,98104.44
2022-11-16T07:28:35.759Z,98101.66
2022-11-16T07:31:03.717Z,98100.28
2022-11-16T07:33:31.285Z,98108.28
2022-11-16T07:36:08.367Z,98103.41
2022-11-16T07:38:36.397Z,98101.50
2022-11-16T07:41:04.466Z,98100.88
2022-11-16T07:43:35.064Z,98103.03
2022-11-16T07:48:54.275Z,98095.97
2022-11-16T07:51:24.208Z,98097.13
2022-11-16T07:53:57.329Z,98086.91
2022-11-16T07:56:25.021Z,98098.72
2022-11-16T07:58:52.526Z,98091.25
2022-11-16T08:01:20.586Z,98078.44
2022-11-16T08:03:48.427Z,98084.16
2022-11-16T08:06:23.770Z,98085.69
2022-11-16T08:08:56.692Z,98083.00
2022-11-16T08:11:25.955Z,98079.28
2022-11-16T08:13:53.415Z,98075.34
2022-11-16T08:16:21.619Z,98080.63
2022-11-16T08:18:49.565Z,98084.78
2022-11-16T08:21:17.766Z,98086.50
2022-11-16T08:23:45.242Z,98086.97
2022-11-16T08:26:16.589Z,98084.34
2022-11-16T08:28:45.950Z,98078.25
2022-11-16T08:31:17.225Z,98076.91
2022-11-16T08:33:45.179Z,98076.75
2022-11-16T08:36:17.124Z,98063.16
2022-11-16T08:38:45.373Z,98072.47
2022-11-16T08:41:13.029Z,98062.25
2022-11-16T08:43:40.553Z,98070.22
2022-11-16T08:46:08.824Z,98072.66
2022-11-16T08:48:37.120Z,98068.34
2022-11-16T08:51:21.355Z,98070.00
2022-11-16T08:53:49.922Z,98073.50
2022-11-16T08:56:18.306Z,98066.84
2022-11-16T08:58:51.376Z,98067.75
2022-11-16T09:01:22.624Z,98070.56
2022-11-16T09:03:52.141Z,98061.03
2022-11-16T09:06:19.394Z,98057.03
2022-11-16T09:08:46.978Z,98054.97
2022-11-16T09:11:16.019Z,98054.19
2022-11-16T09:13:43.810Z,98050.00
2022-11-16T09:16:15.977Z,98047.25
2022-11-16T09:18:43.862Z,98043.38
2022-11-16T09:21:11.252Z,98041.84
2022-11-16T09:23:38.340Z,98039.03
2022-11-16T09:26:05.597Z,98045.88
2022-11-16T09:28:33.294Z,98047.06
2022-11-16T09:31:02.063Z,98047.28
2022-11-16T09:33:30.293Z,98042.94
2022-11-16T09:36:07.079Z,98054.25
2022-11-16T09:38:54.412Z,98048.66
2022-11-16T09:41:40.636Z,98046.03
2022-11-16T09:44:13.859Z,98040.53
2022-11-16T09:46:41.815Z,98032.31
2022-11-16T09:49:17.679Z,98030.91
2022-11-16T09:51:46.649Z,98031.84
2022-11-16T09:54:39.975Z,98022.31
2022-11-16T09:57:12.358Z,98018.84
2022-11-16T09:59:45.023Z,98017.44
2022-11-16T10:02:32.626Z,98008.41
2022-11-16T10:05:04.067Z,97999.66
2022-11-16T10:07:38.560Z,98006.09
2022-11-16T10:10:06.304Z,98004.59
2022-11-16T10:12:46.319Z,98002.47
2022-11-16T10:15:19.836Z,98002.13
2022-11-16T10:18:05.682Z,97998.53
2022-11-16T10:20:51.906Z,97992.78
2022-11-16T10:23:34.296Z,97989.91
2022-11-16T10:26:23.769Z,97989.66
2022-11-16T10:28:53.127Z,97987.00
2022-11-16T10:31:26.800Z,97986.72
2022-11-16T10:33:54.317Z,97973.03
2022-11-16T10:36:21.666Z,97968.66
2022-11-16T10:38:48.953Z,97967.34
2022-11-16T10:41:19.379Z,97955.03
2022-11-16T10:43:46.800Z,97955.53
2022-11-16T10:46:32.926Z,97951.22
2022-11-16T10:49:00.283Z,97952.66
2022-11-16T10:51:27.419Z,97939.12
2022-11-16T10:53:55.744Z,97935.03
2022-11-16T10:56:23.084Z,97930.16
2022-11-16T10:59:00.670Z,97933.88
2022-11-16T11:01:41.263Z,97923.66
2022-11-16T11:04:24.598Z,97919.19
2022-11-16T11:06:55.713Z,97924.75
2022-11-16T11:09:32.903Z,97924.00
2022-11-16T11:12:35.626Z,97920.63
2022-11-16T11:15:12.106Z,97924.09
2022-11-16T11:17:40.369Z,97922.97
2022-11-16T11:20:07.600Z,97920.87
2022-11-16T11:22:47.104Z,97918.25
2022-11-16T11:25:20.644Z,97912.25
2022-11-16T11:27:47.828Z,97905.34
2022-11-16T11:30:19.907Z,97903.16
2022-11-16T11:32:47.283Z,97892.88
2022-11-16T11:35:24.003Z,97890.44
2022-11-16T11:37:51.294Z,97889.28
2022-11-16T11:40:19.997Z,97893.53
2022-11-16T11:43:05.511Z,97883.16
2022-11-16T11:45:39.458Z,97889.41
2022-11-16T11:48:30.109Z,97886.62
2022-11-16T11:51:16.560Z,97881.84
2022-11-16T11:53:51.933Z,97879.41
2022-11-16T11:56:19.318Z,97883.69
2022-11-16T11:58:46.612Z,97883.50
2022-11-16T12:01:32.210Z,97872.88
2022-11-16T12:04:08.892Z,97871.47
2022-11-16T12:06:54.667Z,97873.22
2022-11-16T12:09:22.009Z,97865.16
2022-11-16T12:12:13.321Z,97859.81
2022-11-16T12:14:42.368Z,97865.75
2022-11-16T12:17:14.720Z,97864.22
2022-11-16T12:19:49.139Z,97868.84
2022-11-16T12:22:16.232Z,97862.91
2022-11-16T12:25:02.402Z,97860.41
2022-11-16T12:27:38.432Z,97859.44
2022-11-16T12:30:13.675Z,97854.75
2022-11-16T12:32:48.204Z,97852.59
2022-11-16T12:35:24.691Z,97844.59
2022-11-16T12:38:10.517Z,97836.56
2022-11-16T12:40:40.830Z,97842.59
2022-11-16T12:43:18.805Z,97841.91
2022-11-16T12:45:49.197Z,97843.50
2022-11-16T12:48:19.460Z,97832.00
2022-11-16T12:50:50.439Z,97836.69
2022-11-16T12:53:23.716Z,97838.59
2022-11-16T12:56:09.900Z,97831.66
2022-11-16T12:58:45.942Z,97835.81
2022-11-16T13:01:33.570Z,97844.72
2022-11-16T13:04:01.721Z,97834.19
2022-11-16T13:06:31.063Z,97844.28
2022-11-16T13:09:11.494Z,97846.81
2022-11-16T13:11:40.326Z,97839.84
2022-11-16T13:14:10.311Z,97840.28
2022-11-16T13:16:37.409Z,97845.41
2022-11-16T13:19:05.665Z,97837.47
2022-11-16T13:21:38.553Z,97835.84
2022-11-16T13:24:18.142Z,97830.81
2022-11-16T13:26:48.558Z,97834.13
2022-11-16T13:29:22.443Z,97824.84
2022-11-16T13:31:52.843Z,97818.44
2022-11-16T13:34:27.533Z,97821.34
2022-11-16T13:36:54.725Z,97827.22
2022-11-16T13:39:42.161Z,97826.63
2022-11-16T13:42:12.582Z,97822.47
2022-11-16T13:44:40.083Z,97817.44
2022-11-16T13:47:07.410Z,97824.16
2022-11-16T13:49:41.477Z,97832.19
2022-11-16T13:52:23.558Z,97831.34
2022-11-16T13:54:53.434Z,97823.56
2022-11-16T13:57:29.768Z,97813.53
2022-11-16T14:00:17.077Z,97812.50
2022-11-16T14:02:44.501Z,97817.62
2022-11-16T14:05:30.405Z,97807.28
2022-11-16T14:07:57.842Z,97806.81
2022-11-16T14:10:33.940Z,97810.94
2022-11-16T14:13:01.836Z,97806.31
2022-11-16T14:15:30.043Z,97803.22
2022-11-16T14:17:57.782Z,97804.19
2022-11-16T14:20:31.147Z,97801.62
2022-11-16T14:23:11.458Z,97804.97
2022-11-16T14:26:01.964Z,97808.13
2022-11-16T14:28:39.121Z,97810.59
2022-11-16T14:31:08.828Z,97807.75
2022-11-16T14:33:36.435Z,97797.41
2022-11-16T14:36:05.042Z,97798.28
2022-11-16T14:38:33.248Z,97797.75
2022-11-16T14:41:01.228Z,97795.72
2022-11-16T14:43:30.422Z,97787.91
2022-11-16T14:46:08.603Z,97792.53
2022-11-16T14:48:41.957Z,97786.44
2022-11-16T14:51:20.580Z,97772.34
2022-11-16T14:53:52.732Z,97784.53
2022-11-16T14:56:20.166Z,97776.66
2022-11-16T14:59:05.514Z,97771.44
2022-11-16T15:01:38.232Z,97776.50
2022-11-16T15:04:08.862Z,97765.41
2022-11-16T15:06:43.852Z,97774.56
2022-11-16T15:09:13.836Z,97773.00
2022-11-16T15:12:00.106Z,97772.62
2022-11-16T15:14:29.541Z,97768.87
2022-11-16T15:16:57.651Z,97769.25
2022-11-16T15:19:24.838Z,97759.19
2022-11-16T15:21:52.745Z,97761.09
2022-11-16T15:24:38.293Z,97757.56
2022-11-16T15:27:08.270Z,97756.91
2022-11-16T15:29:35.666Z,97752.78
2022-11-16T15:32:02.838Z,97757.66
2022-11-16T15:34:29.945Z,97752.72
2022-11-16T15:36:57.320Z,97753.63
2022-11-16T15:39:24.521Z,97749.00
2022-11-16T15:41:51.617Z,97755.50
2022-11-16T15:44:19.626Z,97750.16
2022-11-16T15:46:50.771Z,97746.69
2022-11-16T15:49:36.953Z,97747.16
2022-11-16T15:52:04.863Z,97750.38
2022-11-16T15:54:51.316Z,97754.16
2022-11-16T15:57:18.948Z,97755.16
2022-11-16T15:59:49.585Z,97761.50
2022-11-16T16:02:20.357Z,97748.09
2022-11-16T16:04:47.753Z,97754.00
2022-11-16T16:07:33.848Z,97748.62
2022-11-16T16:10:19.360Z,97748.50
2022-11-16T16:12:49.622Z,97752.84
2022-11-16T16:15:29.941Z,97753.69
2022-11-16T16:17:57.518Z,97750.94
2022-11-16T16:20:25.826Z,97748.78
2022-11-16T16:22:56.201Z,97749.47
2022-11-16T16:25:30.866Z,97747.44
2022-11-16T16:27:58.866Z,97750.50
2022-11-16T16:30:26.172Z,97751.00
2022-11-16T16:32:54.000Z,97750.31
2022-11-16T16:35:22.994Z,97750.63
2022-11-16T16:37:50.732Z,97752.19
2022-11-16T16:40:18.350Z,97750.81
2022-11-16T16:42:48.330Z,97748.50
2022-11-16T16:45:16.874Z,97745.00
2022-11-16T16:47:44.137Z,97747.72
2022-11-16T16:50:11.528Z,97737.84
2022-11-16T16:52:40.024Z,97739.38
2022-11-16T16:55:07.453Z,97738.75
2022-11-16T16:57:34.918Z,97735.34
2022-11-16T17:00:02.261Z,97740.72
2022-11-16T17:02:29.452Z,97739.22
2022-11-16T17:04:57.270Z,97744.34
2022-11-16T17:07:25.408Z,97738.88
2022-11-16T17:09:52.723Z,97733.25
2022-11-16T17:12:20.299Z,97735.78
2022-11-16T17:14:51.884Z,97729.44
2022-11-16T17:17:19.794Z,97731.47
2022-11-16T17:19:47.144Z,97730.06
2022-11-16T17:22:14.858Z,97728.59
2022-11-16T17:24:42.796Z,97728.41
2022-11-16T17:27:10.269Z,97726.16
2022-11-16T17:29:37.622Z,97727.91
2022-11-16T17:32:05.389Z,97721.63
2022-11-16T17:34:33.091Z,97729.50
2022-11-16T17:37:00.557Z,97729.81
2022-11-16T17:39:28.286Z,97732.13
2022-11-16T17:41:55.962Z,97730.22
2022-11-16T17:44:23.741Z,97725.72
2022-11-16T17:46:51.280Z,97729.53
2022-11-16T17:49:18.801Z,97728.69
2022-11-16T17:51:47.432Z,97735.31
2022-11-16T17:54:15.997Z,97724.34
2022-11-16T17:56:43.248Z,97725.13
2022-11-16T17:59:10.827Z,97725.88
2022-11-16T18:01:38.851Z,97726.31
2022-11-16T18:04:06.866Z,97727.94
2022-11-16T18:06:35.499Z,97727.00
2022-11-16T18:09:03.570Z,97719.72
2022-11-16T18:11:31.214Z,97717.41
2022-11-16T18:14:00.798Z,97711.53
2022-11-16T18:16:29.155Z,97710.59
2022-11-16T18:18:58.469Z,97709.16
2022-11-16T18:21:26.369Z,97707.75
2022-11-16T18:23:53.732Z,97709.59
2022-11-16T18:26:22.298Z,97707.94
2022-11-16T18:28:50.511Z,97708.53
2022-11-16T18:31:19.346Z,97714.72
2022-11-16T18:33:50.261Z,97708.16
2022-11-16T18:36:18.501Z,97709.06
2022-11-16T18:38:46.250Z,97707.25
2022-11-16T18:41:14.192Z,97717.47
2022-11-16T18:43:56.271Z,97709.59
2022-11-16T18:46:26.010Z,97712.38
2022-11-16T18:48:53.865Z,97712.13
2022-11-16T18:51:22.329Z,97706.97
2022-11-16T18:53:50.757Z,97699.31
2022-11-16T18:56:18.638Z,97706.44
2022-11-16T18:58:51.500Z,97702.78
2022-11-16T19:01:21.210Z,97700.09
2022-11-16T19:03:49.079Z,97699.78
2022-11-16T19:06:18.261Z,97696.53
2022-11-16T19:08:53.604Z,97700.16
2022-11-16T19:11:22.995Z,97701.88
2022-11-16T19:13:57.935Z,97699.06
2022-11-16T19:16:25.600Z,97695.16
2022-11-16T19:18:53.042Z,97697.78
2022-11-16T19:21:20.304Z,97694.38
2022-11-16T19:23:49.334Z,97688.59
2022-11-16T19:26:18.200Z,97689.75
2022-11-16T19:28:47.509Z,97686.69
2022-11-16T19:31:19.545Z,97697.72
2022-11-16T19:33:47.703Z,97694.75
2022-11-16T19:36:20.699Z,97698.66
2022-11-16T19:38:49.119Z,97697.97
2022-11-16T19:41:17.276Z,97684.37
2022-11-16T19:43:45.750Z,97697.47
2022-11-16T19:46:18.926Z,97695.69
2022-11-16T19:48:47.623Z,97691.28
2022-11-16T19:51:16.697Z,97677.66
2022-11-16T19:53:44.797Z,97679.13
2022-11-16T19:56:13.180Z,97684.41
2022-11-16T19:58:41.474Z,97684.59
2022-11-16T20:01:13.682Z,97681.06
2022-11-16T20:03:42.513Z,97683.91
2022-11-16T20:06:13.597Z,97686.69
2022-11-16T20:08:41.799Z,97691.09
2022-11-16T20:11:13.046Z,97691.47
2022-11-16T20:13:43.285Z,97700.16
2022-11-16T20:16:12.034Z,97697.94
2022-11-16T20:18:39.856Z,97695.44
2022-11-16T20:21:08.303Z,97700.34
2022-11-16T20:23:38.260Z,97698.66
2022-11-16T20:26:09.402Z,97696.78
2022-11-16T20:28:37.846Z,97701.34
2022-11-16T20:31:13.203Z,97708.13
2022-11-16T20:33:40.967Z,97711.81
2022-11-16T20:36:09.167Z,97718.38
2022-11-16T20:38:37.219Z,97707.25
2022-11-16T20:41:11.305Z,97697.66
2022-11-16T20:43:42.073Z,97692.81
2022-11-16T20:46:10.709Z,97701.22
2022-11-16T20:48:38.575Z,97696.50
2022-11-16T20:51:06.388Z,97697.13
2022-11-16T20:53:34.235Z,97685.06
2022-11-16T20:56:04.996Z,97692.53
2022-11-16T20:58:32.674Z,97684.34
2022-11-16T21:01:01.014Z,97687.81
2022-11-16T21:03:28.494Z,97699.47
2022-11-16T21:05:55.831Z,97697.06
2022-11-16T21:08:24.402Z,97699.91
2022-11-16T21:10:51.715Z,97688.91
2022-11-16T21:13:37.818Z,97685.81
2022-11-16T21:16:06.761Z,97684.75
2022-11-16T21:18:34.064Z,97675.53
2022-11-16T21:21:01.787Z,97677.19
2022-11-16T21:23:30.483Z,97664.34
2022-11-16T21:26:04.523Z,97660.03
2022-11-16T21:28:31.986Z,97661.03
2022-11-16T21:30:59.877Z,97667.16
2022-11-16T21:33:27.234Z,97657.09
2022-11-16T21:35:54.788Z,97654.50
2022-11-16T21:38:22.398Z,97649.38
2022-11-16T21:40:49.679Z,97651.44
2022-11-16T21:43:17.222Z,97642.84
2022-11-16T21:45:44.807Z,97644.72
2022-11-16T21:48:12.182Z,97632.69
2022-11-16T21:50:39.596Z,97635.53
2022-11-16T21:53:07.211Z,97636.34
2022-11-16T21:55:34.413Z,97633.25
2022-11-16T21:58:03.602Z,97630.16
2022-11-16T22:00:30.749Z,97638.63
2022-11-16T22:02:58.129Z,97645.41
2022-11-16T22:05:44.137Z,97649.28
2022-11-16T22:08:14.230Z,97644.16
2022-11-16T22:10:41.374Z,97632.50
2022-11-16T22:13:08.468Z,97620.59
2022-11-16T22:15:35.833Z,97622.53
2022-11-16T22:18:02.980Z,97623.22
2022-11-16T22:20:30.076Z,97645.03
2022-11-16T22:22:57.459Z,97649.81
2022-11-16T22:25:24.676Z,97661.91
2022-11-16T22:28:19.234Z,97662.25
2022-11-16T22:30:39.314Z,97671.53
2022-11-16T22:33:06.413Z,97668.97
2022-11-16T22:35:33.508Z,97650.91
2022-11-16T22:38:01.978Z,97652.22
2022-11-16T22:40:29.082Z,97654.00
2022-11-16T22:42:56.687Z,97664.81
2022-11-16T22:45:24.963Z,97660.81
2022-11-16T22:47:54.936Z,97663.16
2022-11-16T22:50:24.080Z,97643.59
2022-11-16T22:52:51.451Z,97647.97
2022-11-16T22:55:18.572Z,97655.34
2022-11-16T22:57:45.674Z,97660.09
2022-11-16T23:00:13.714Z,97662.25
2022-11-16T23:02:41.132Z,97648.47
2022-11-16T23:05:08.263Z,97643.16
2022-11-16T23:07:35.945Z,97645.53
2022-11-16T23:10:03.540Z,97646.78
2022-11-16T23:12:49.391Z,97645.87
2022-11-16T23:15:35.395Z,97630.91
2022-11-16T23:18:02.518Z,97630.66
2022-11-16T23:20:48.990Z,97638.37
2022-11-16T23:23:37.685Z,97641.81
2022-11-16T23:26:23.975Z,97644.75
2022-11-16T23:28:51.086Z,97645.50
2022-11-16T23:31:18.480Z,97646.13
2022-11-16T23:33:45.701Z,97633.50
2022-11-16T23:36:12.869Z,97638.28
2022-11-16T23:38:40.244Z,97646.22
2022-11-16T23:41:40.032Z,97651.72
2022-11-16T23:44:07.404Z,97660.91
2022-11-16T23:46:34.515Z,97642.72
2022-11-16T23:49:02.115Z,97644.22
2022-11-16T23:51:29.488Z,97642.84
2022-11-16T23:53:56.682Z,97635.69
2022-11-16T23:56:23.804Z,97645.66
2022-11-16T23:58:51.182Z,97635.00
